sensor_id;sensor_type;location;lat;lon;timestamp;temperature;humidity
1956;DHT22;978;48.314;11.562;2023-05-16T00:01:52;21.30;76.50
1956;DHT22;978;48.314;11.562;2023-05-16T00:04:20;21.40;76.50
1956;DHT22;978;48.314;11.562;2023-05-16T00:06:51;21.40;76.50
1956;DHT22;978;48.314;11.562;2023-05-16T00:09:20;21.30;76.50
1956;DHT22;978;48.314;11.562;2023-05-16T00:11:47;21.30;76.40
1956;DHT22;978;48.314;11.562;2023-05-16T00:14:16;21.30;76.40
1956;DHT22;978;48.314;11.562;2023-05-16T00:16:43;21.30;76.40
1956;DHT22;978;48.314;11.562;2023-05-16T00:19:13;21.40;76.50
1956;DHT22;978;48.314;11.562;2023-05-16T00:21:39;21.30;76.40
1956;DHT22;978;48.314;11.562;2023-05-16T00:24:08;21.30;76.40
1956;DHT22;978;48.314;11.562;2023-05-16T00:26:34;21.30;76.90
1956;DHT22;978;48.314;11.562;2023-05-16T00:29:01;21.30;76.30
1956;DHT22;978;48.314;11.562;2023-05-16T00:31:29;21.40;76.40
1956;DHT22;978;48.314;11.562;2023-05-16T00:33:57;21.40;76.40
1956;DHT22;978;48.314;11.562;2023-05-16T00:36:26;21.30;76.30
1956;DHT22;978;48.314;11.562;2023-05-16T00:38:54;21.40;76.40
1956;DHT22;978;48.314;11.562;2023-05-16T00:41:23;21.30;76.30
1956;DHT22;978;48.314;11.562;2023-05-16T00:43:52;21.30;76.30
1956;DHT22;978;48.314;11.562;2023-05-16T00:46:19;21.30;76.30
1956;DHT22;978;48.314;11.562;2023-05-16T00:48:48;21.40;76.30
1956;DHT22;978;48.314;11.562;2023-05-16T00:51:15;21.40;76.30
1956;DHT22;978;48.314;11.562;2023-05-16T00:53:42;21.30;76.30
1956;DHT22;978;48.314;11.562;2023-05-16T00:56:11;21.30;76.20
1956;DHT22;978;48.314;11.562;2023-05-16T00:58:39;21.40;76.30
1956;DHT22;978;48.314;11.562;2023-05-16T01:01:06;21.30;76.20
1956;DHT22;978;48.314;11.562;2023-05-16T01:03:35;21.30;76.20
1956;DHT22;978;48.314;11.562;2023-05-16T01:06:02;21.30;76.20
1956;DHT22;978;48.314;11.562;2023-05-16T01:08:30;21.40;76.30
1956;DHT22;978;48.314;11.562;2023-05-16T01:11:03;21.40;76.30
1956;DHT22;978;48.314;11.562;2023-05-16T01:13:42;21.40;76.20
1956;DHT22;978;48.314;11.562;2023-05-16T01:16:18;21.40;76.20
1956;DHT22;978;48.314;11.562;2023-05-16T01:18:56;21.40;76.20
1956;DHT22;978;48.314;11.562;2023-05-16T01:21:37;21.40;76.20
1956;DHT22;978;48.314;11.562;2023-05-16T01:24:13;21.30;76.10
1956;DHT22;978;48.314;11.562;2023-05-16T01:26:42;21.30;76.10
1956;DHT22;978;48.314;11.562;2023-05-16T01:29:10;21.40;76.20
1956;DHT22;978;48.314;11.562;2023-05-16T01:31:37;21.30;76.10
1956;DHT22;978;48.314;11.562;2023-05-16T01:34:04;21.30;76.10
1956;DHT22;978;48.314;11.562;2023-05-16T01:36:39;21.30;76.10
1956;DHT22;978;48.314;11.562;2023-05-16T01:39:16;21.30;76.10
1956;DHT22;978;48.314;11.562;2023-05-16T01:41:53;21.40;76.10
1956;DHT22;978;48.314;11.562;2023-05-16T01:44:24;21.30;76.10
1956;DHT22;978;48.314;11.562;2023-05-16T01:47:00;21.30;76.10
1956;DHT22;978;48.314;11.562;2023-05-16T01:49:34;21.30;76.10
1956;DHT22;978;48.314;11.562;2023-05-16T01:52:07;21.40;76.10
1956;DHT22;978;48.314;11.562;2023-05-16T01:54:37;21.30;76.00
1956;DHT22;978;48.314;11.562;2023-05-16T01:57:08;21.30;76.00
1956;DHT22;978;48.314;11.562;2023-05-16T01:59:36;21.40;76.10
1956;DHT22;978;48.314;11.562;2023-05-16T02:02:04;21.30;76.00
1956;DHT22;978;48.314;11.562;2023-05-16T02:04:32;21.30;76.00
1956;DHT22;978;48.314;11.562;2023-05-16T02:07:00;21.30;76.00
1956;DHT22;978;48.314;11.562;2023-05-16T02:09:29;21.30;76.00
1956;DHT22;978;48.314;11.562;2023-05-16T02:11:57;21.30;75.90
1956;DHT22;978;48.314;11.562;2023-05-16T02:14:27;21.30;75.90
1956;DHT22;978;48.314;11.562;2023-05-16T02:16:56;21.40;76.00
1956;DHT22;978;48.314;11.562;2023-05-16T02:19:22;21.30;75.90
1956;DHT22;978;48.314;11.562;2023-05-16T02:21:49;21.40;76.00
1956;DHT22;978;48.314;11.562;2023-05-16T02:24:16;21.30;75.90
1956;DHT22;978;48.314;11.562;2023-05-16T02:26:43;21.40;76.00
1956;DHT22;978;48.314;11.562;2023-05-16T02:29:10;21.30;75.90
1956;DHT22;978;48.314;11.562;2023-05-16T02:31:38;21.30;75.90
1956;DHT22;978;48.314;11.562;2023-05-16T02:34:05;21.30;75.90
1956;DHT22;978;48.314;11.562;2023-05-16T02:36:33;21.30;75.90
1956;DHT22;978;48.314;11.562;2023-05-16T02:39:01;21.30;75.90
1956;DHT22;978;48.314;11.562;2023-05-16T02:41:32;21.30;75.90
1956;DHT22;978;48.314;11.562;2023-05-16T02:44:01;21.30;75.90
1956;DHT22;978;48.314;11.562;2023-05-16T02:46:31;21.30;75.90
1956;DHT22;978;48.314;11.562;2023-05-16T02:49:02;21.30;75.80
1956;DHT22;978;48.314;11.562;2023-05-16T02:51:31;21.30;75.80
1956;DHT22;978;48.314;11.562;2023-05-16T02:53:58;21.30;75.80
1956;DHT22;978;48.314;11.562;2023-05-16T02:56:25;21.40;75.90
1956;DHT22;978;48.314;11.562;2023-05-16T02:58:53;21.30;75.80
1956;DHT22;978;48.314;11.562;2023-05-16T03:01:20;21.40;75.90
1956;DHT22;978;48.314;11.562;2023-05-16T03:03:47;21.30;75.80
1956;DHT22;978;48.314;11.562;2023-05-16T03:06:16;21.30;75.80
1956;DHT22;978;48.314;11.562;2023-05-16T03:08:43;21.30;75.70
1956;DHT22;978;48.314;11.562;2023-05-16T03:11:09;21.30;75.70
1956;DHT22;978;48.314;11.562;2023-05-16T03:13:37;21.40;75.80
1956;DHT22;978;48.314;11.562;2023-05-16T03:16:05;21.30;75.70
1956;DHT22;978;48.314;11.562;2023-05-16T03:18:33;21.30;75.70
1956;DHT22;978;48.314;11.562;2023-05-16T03:21:03;21.30;75.70
1956;DHT22;978;48.314;11.562;2023-05-16T03:23:32;21.30;75.70
1956;DHT22;978;48.314;11.562;2023-05-16T03:26:03;21.30;75.70
1956;DHT22;978;48.314;11.562;2023-05-16T03:28:31;21.30;75.60
1956;DHT22;978;48.314;11.562;2023-05-16T03:30:59;21.40;75.70
1956;DHT22;978;48.314;11.562;2023-05-16T03:33:26;21.30;75.60
1956;DHT22;978;48.314;11.562;2023-05-16T03:35:52;21.30;75.60
1956;DHT22;978;48.314;11.562;2023-05-16T03:38:19;21.30;75.60
1956;DHT22;978;48.314;11.562;2023-05-16T03:40:47;21.30;75.60
1956;DHT22;978;48.314;11.562;2023-05-16T03:43:14;21.30;75.60
1956;DHT22;978;48.314;11.562;2023-05-16T03:45:41;21.40;75.60
1956;DHT22;978;48.314;11.562;2023-05-16T03:48:08;21.30;75.60
1956;DHT22;978;48.314;11.562;2023-05-16T03:50:36;21.30;75.60
1956;DHT22;978;48.314;11.562;2023-05-16T03:53:05;21.30;75.60
1956;DHT22;978;48.314;11.562;2023-05-16T03:55:35;21.30;75.60
1956;DHT22;978;48.314;11.562;2023-05-16T03:58:05;21.30;75.50
1956;DHT22;978;48.314;11.562;2023-05-16T04:00:33;21.30;75.60
1956;DHT22;978;48.314;11.562;2023-05-16T04:03:02;21.30;75.60
1956;DHT22;978;48.314;11.562;2023-05-16T04:05:30;21.30;75.60
1956;DHT22;978;48.314;11.562;2023-05-16T04:08:00;21.30;75.60
1956;DHT22;978;48.314;11.562;2023-05-16T04:10:27;21.30;75.60
1956;DHT22;978;48.314;11.562;2023-05-16T04:12:54;21.30;75.60
1956;DHT22;978;48.314;11.562;2023-05-16T04:15:43;21.30;75.60
1956;DHT22;978;48.314;11.562;2023-05-16T04:18:20;21.40;75.60
1956;DHT22;978;48.314;11.562;2023-05-16T04:20:47;21.30;75.50
1956;DHT22;978;48.314;11.562;2023-05-16T04:23:14;21.30;75.50
1956;DHT22;978;48.314;11.562;2023-05-16T04:25:43;21.30;75.50
1956;DHT22;978;48.314;11.562;2023-05-16T04:28:10;21.30;75.50
1956;DHT22;978;48.314;11.562;2023-05-16T04:30:43;21.30;75.40
1956;DHT22;978;48.314;11.562;2023-05-16T04:33:11;21.30;75.40
1956;DHT22;978;48.314;11.562;2023-05-16T04:35:39;21.30;75.40
1956;DHT22;978;48.314;11.562;2023-05-16T04:38:05;21.30;75.40
1956;DHT22;978;48.314;11.562;2023-05-16T04:40:36;21.30;75.40
1956;DHT22;978;48.314;11.562;2023-05-16T04:43:04;21.30;75.40
1956;DHT22;978;48.314;11.562;2023-05-16T04:45:31;21.40;75.50
1956;DHT22;978;48.314;11.562;2023-05-16T04:47:59;21.40;75.40
1956;DHT22;978;48.314;11.562;2023-05-16T04:50:26;21.30;75.40
1956;DHT22;978;48.314;11.562;2023-05-16T04:52:53;21.30;75.40
1956;DHT22;978;48.314;11.562;2023-05-16T04:55:21;21.30;75.40
1956;DHT22;978;48.314;11.562;2023-05-16T04:57:48;21.30;75.40
1956;DHT22;978;48.314;11.562;2023-05-16T05:00:16;21.30;75.10
1956;DHT22;978;48.314;11.562;2023-05-16T05:02:45;21.30;74.50
1956;DHT22;978;48.314;11.562;2023-05-16T05:05:15;21.30;75.10
1956;DHT22;978;48.314;11.562;2023-05-16T05:07:43;21.30;75.20
1956;DHT22;978;48.314;11.562;2023-05-16T05:10:12;21.30;75.30
1956;DHT22;978;48.314;11.562;2023-05-16T05:12:40;21.30;75.30
1956;DHT22;978;48.314;11.562;2023-05-16T05:15:07;21.40;75.40
1956;DHT22;978;48.314;11.562;2023-05-16T05:17:39;21.40;75.30
1956;DHT22;978;48.314;11.562;2023-05-16T05:20:08;21.30;75.20
1956;DHT22;978;48.314;11.562;2023-05-16T05:22:36;21.30;75.20
1956;DHT22;978;48.314;11.562;2023-05-16T05:25:04;21.30;75.20
1956;DHT22;978;48.314;11.562;2023-05-16T05:27:31;21.30;75.20
1956;DHT22;978;48.314;11.562;2023-05-16T05:29:58;21.30;75.20
1956;DHT22;978;48.314;11.562;2023-05-16T05:32:25;21.30;75.20
1956;DHT22;978;48.314;11.562;2023-05-16T05:34:51;21.30;75.20
1956;DHT22;978;48.314;11.562;2023-05-16T05:37:18;21.30;75.20
1956;DHT22;978;48.314;11.562;2023-05-16T05:39:46;21.30;75.20
1956;DHT22;978;48.314;11.562;2023-05-16T05:42:15;21.30;75.20
1956;DHT22;978;48.314;11.562;2023-05-16T05:44:41;21.30;75.20
1956;DHT22;978;48.314;11.562;2023-05-16T05:47:10;21.30;75.20
1956;DHT22;978;48.314;11.562;2023-05-16T05:49:41;21.30;75.20
1956;DHT22;978;48.314;11.562;2023-05-16T05:52:08;21.30;75.20
1956;DHT22;978;48.314;11.562;2023-05-16T05:54:36;21.40;75.30
1956;DHT22;978;48.314;11.562;2023-05-16T05:57:05;21.30;75.20
1956;DHT22;978;48.314;11.562;2023-05-16T05:59:32;21.30;75.20
1956;DHT22;978;48.314;11.562;2023-05-16T06:01:58;21.30;75.20
1956;DHT22;978;48.314;11.562;2023-05-16T06:04:25;21.30;75.20
1956;DHT22;978;48.314;11.562;2023-05-16T06:06:52;21.30;75.20
1956;DHT22;978;48.314;11.562;2023-05-16T06:09:20;21.30;75.20
1956;DHT22;978;48.314;11.562;2023-05-16T06:11:48;21.30;75.20
1956;DHT22;978;48.314;11.562;2023-05-16T06:14:17;21.30;75.80
1956;DHT22;978;48.314;11.562;2023-05-16T06:16:45;21.30;75.20
1956;DHT22;978;48.314;11.562;2023-05-16T06:19:13;21.30;75.20
1956;DHT22;978;48.314;11.562;2023-05-16T06:21:42;21.30;75.20
1956;DHT22;978;48.314;11.562;2023-05-16T06:24:09;21.30;75.20
1956;DHT22;978;48.314;11.562;2023-05-16T06:26:37;21.30;75.20
1956;DHT22;978;48.314;11.562;2023-05-16T06:29:03;21.30;75.20
1956;DHT22;978;48.314;11.562;2023-05-16T06:31:31;21.30;75.30
1956;DHT22;978;48.314;11.562;2023-05-16T06:33:58;21.30;75.20
1956;DHT22;978;48.314;11.562;2023-05-16T06:36:25;21.30;75.30
1956;DHT22;978;48.314;11.562;2023-05-16T06:38:52;21.30;75.20
1956;DHT22;978;48.314;11.562;2023-05-16T06:41:18;21.30;75.30
1956;DHT22;978;48.314;11.562;2023-05-16T06:43:46;21.30;75.30
1956;DHT22;978;48.314;11.562;2023-05-16T06:46:14;21.30;75.30
1956;DHT22;978;48.314;11.562;2023-05-16T06:48:44;21.30;75.30
1956;DHT22;978;48.314;11.562;2023-05-16T06:51:12;21.30;75.30
1956;DHT22;978;48.314;11.562;2023-05-16T06:53:40;21.30;75.30
1956;DHT22;978;48.314;11.562;2023-05-16T06:56:10;21.30;75.30
1956;DHT22;978;48.314;11.562;2023-05-16T06:58:42;21.30;75.30
1956;DHT22;978;48.314;11.562;2023-05-16T07:01:16;21.30;75.30
1956;DHT22;978;48.314;11.562;2023-05-16T07:03:45;21.30;75.30
1956;DHT22;978;48.314;11.562;2023-05-16T07:06:17;21.30;75.30
1956;DHT22;978;48.314;11.562;2023-05-16T07:08:44;21.30;75.30
1956;DHT22;978;48.314;11.562;2023-05-16T07:11:13;21.30;75.30
1956;DHT22;978;48.314;11.562;2023-05-16T07:13:40;21.30;75.30
1956;DHT22;978;48.314;11.562;2023-05-16T07:16:10;21.40;75.40
1956;DHT22;978;48.314;11.562;2023-05-16T07:18:41;21.30;75.30
1956;DHT22;978;48.314;11.562;2023-05-16T07:21:12;21.30;75.30
1956;DHT22;978;48.314;11.562;2023-05-16T07:23:39;21.30;75.40
1956;DHT22;978;48.314;11.562;2023-05-16T07:26:11;21.30;75.30
1956;DHT22;978;48.314;11.562;2023-05-16T07:28:42;21.40;75.40
1956;DHT22;978;48.314;11.562;2023-05-16T07:31:09;21.30;75.30
1956;DHT22;978;48.314;11.562;2023-05-16T07:33:35;21.30;75.40
1956;DHT22;978;48.314;11.562;2023-05-16T07:36:03;21.30;75.30
1956;DHT22;978;48.314;11.562;2023-05-16T07:38:31;21.30;75.30
1956;DHT22;978;48.314;11.562;2023-05-16T07:40:58;21.30;75.30
1956;DHT22;978;48.314;11.562;2023-05-16T07:43:24;21.30;75.40
1956;DHT22;978;48.314;11.562;2023-05-16T07:45:51;21.40;75.40
1956;DHT22;978;48.314;11.562;2023-05-16T07:48:19;21.30;75.30
1956;DHT22;978;48.314;11.562;2023-05-16T07:50:47;21.30;75.30
1956;DHT22;978;48.314;11.562;2023-05-16T07:53:15;21.30;75.30
1956;DHT22;978;48.314;11.562;2023-05-16T07:55:44;21.30;75.30
1956;DHT22;978;48.314;11.562;2023-05-16T07:58:12;21.30;75.30
1956;DHT22;978;48.314;11.562;2023-05-16T08:00:39;21.30;75.30
1956;DHT22;978;48.314;11.562;2023-05-16T08:03:08;21.30;75.30
1956;DHT22;978;48.314;11.562;2023-05-16T08:05:37;21.30;75.40
1956;DHT22;978;48.314;11.562;2023-05-16T08:08:04;21.30;75.30
1956;DHT22;978;48.314;11.562;2023-05-16T08:10:31;21.30;75.40
1956;DHT22;978;48.314;11.562;2023-05-16T08:12:59;21.40;75.40
1956;DHT22;978;48.314;11.562;2023-05-16T08:15:26;21.30;75.40
1956;DHT22;978;48.314;11.562;2023-05-16T08:17:55;21.40;75.40
1956;DHT22;978;48.314;11.562;2023-05-16T08:20:22;21.30;75.40
1956;DHT22;978;48.314;11.562;2023-05-16T08:22:51;21.30;75.40
1956;DHT22;978;48.314;11.562;2023-05-16T08:25:20;21.30;75.40
1956;DHT22;978;48.314;11.562;2023-05-16T08:27:49;21.30;75.30
1956;DHT22;978;48.314;11.562;2023-05-16T08:30:19;21.30;75.30
1956;DHT22;978;48.314;11.562;2023-05-16T08:32:49;21.30;75.40
1956;DHT22;978;48.314;11.562;2023-05-16T08:35:21;21.30;75.30
1956;DHT22;978;48.314;11.562;2023-05-16T08:37:52;21.30;75.30
1956;DHT22;978;48.314;11.562;2023-05-16T08:40:22;21.30;75.30
1956;DHT22;978;48.314;11.562;2023-05-16T08:42:53;21.40;75.40
1956;DHT22;978;48.314;11.562;2023-05-16T08:45:25;21.30;75.30
1956;DHT22;978;48.314;11.562;2023-05-16T08:47:54;21.30;75.40
1956;DHT22;978;48.314;11.562;2023-05-16T08:50:23;21.30;75.40
1956;DHT22;978;48.314;11.562;2023-05-16T08:52:52;21.30;75.40
1956;DHT22;978;48.314;11.562;2023-05-16T08:55:21;21.30;75.40
1956;DHT22;978;48.314;11.562;2023-05-16T08:57:50;21.30;75.40
1956;DHT22;978;48.314;11.562;2023-05-16T09:00:22;21.40;75.40
1956;DHT22;978;48.314;11.562;2023-05-16T09:02:52;21.30;75.40
1956;DHT22;978;48.314;11.562;2023-05-16T09:05:22;21.30;75.40
1956;DHT22;978;48.314;11.562;2023-05-16T09:07:50;21.30;75.40
1956;DHT22;978;48.314;11.562;2023-05-16T09:10:20;21.30;75.40
1956;DHT22;978;48.314;11.562;2023-05-16T09:12:48;21.30;75.40
1956;DHT22;978;48.314;11.562;2023-05-16T09:15:18;21.30;75.40
1956;DHT22;978;48.314;11.562;2023-05-16T09:17:46;21.30;75.40
1956;DHT22;978;48.314;11.562;2023-05-16T09:20:18;21.40;75.40
1956;DHT22;978;48.314;11.562;2023-05-16T09:22:54;21.30;75.40
1956;DHT22;978;48.314;11.562;2023-05-16T09:25:25;21.30;75.60
1956;DHT22;978;48.314;11.562;2023-05-16T09:27:53;21.30;75.40
1956;DHT22;978;48.314;11.562;2023-05-16T09:30:22;21.30;75.40
1956;DHT22;978;48.314;11.562;2023-05-16T09:32:54;21.30;75.40
1956;DHT22;978;48.314;11.562;2023-05-16T09:35:26;21.30;75.40
1956;DHT22;978;48.314;11.562;2023-05-16T09:37:55;21.40;75.40
1956;DHT22;978;48.314;11.562;2023-05-16T09:40:23;21.30;75.40
1956;DHT22;978;48.314;11.562;2023-05-16T09:43:01;21.30;75.40
1956;DHT22;978;48.314;11.562;2023-05-16T09:45:30;21.30;75.40
1956;DHT22;978;48.314;11.562;2023-05-16T09:48:01;21.30;75.40
1956;DHT22;978;48.314;11.562;2023-05-16T09:50:33;21.30;75.40
1956;DHT22;978;48.314;11.562;2023-05-16T09:53:02;21.30;75.40
1956;DHT22;978;48.314;11.562;2023-05-16T09:55:29;21.30;75.40
1956;DHT22;978;48.314;11.562;2023-05-16T09:57:56;21.30;75.40
1956;DHT22;978;48.314;11.562;2023-05-16T10:00:29;21.30;75.40
1956;DHT22;978;48.314;11.562;2023-05-16T10:02:57;21.30;75.40
1956;DHT22;978;48.314;11.562;2023-05-16T10:05:27;21.30;76.00
1956;DHT22;978;48.314;11.562;2023-05-16T10:07:58;21.30;75.50
1956;DHT22;978;48.314;11.562;2023-05-16T10:10:26;21.30;75.50
1956;DHT22;978;48.314;11.562;2023-05-16T10:12:57;21.30;75.50
1956;DHT22;978;48.314;11.562;2023-05-16T10:15:27;21.30;75.50
1956;DHT22;978;48.314;11.562;2023-05-16T10:17:56;21.30;75.50
1956;DHT22;978;48.314;11.562;2023-05-16T10:20:26;21.40;75.60
1956;DHT22;978;48.314;11.562;2023-05-16T10:22:55;21.30;75.50
1956;DHT22;978;48.314;11.562;2023-05-16T10:25:32;21.30;75.50
1956;DHT22;978;48.314;11.562;2023-05-16T10:27:59;21.30;75.50
1956;DHT22;978;48.314;11.562;2023-05-16T10:30:28;21.30;75.50
1956;DHT22;978;48.314;11.562;2023-05-16T10:32:56;21.30;75.50
1956;DHT22;978;48.314;11.562;2023-05-16T10:35:26;21.30;75.60
1956;DHT22;978;48.314;11.562;2023-05-16T10:37:54;21.30;75.60
1956;DHT22;978;48.314;11.562;2023-05-16T10:40:27;21.30;75.60
1956;DHT22;978;48.314;11.562;2023-05-16T10:42:56;21.30;75.60
1956;DHT22;978;48.314;11.562;2023-05-16T10:45:24;21.30;75.60
1956;DHT22;978;48.314;11.562;2023-05-16T10:47:53;21.30;75.60
1956;DHT22;978;48.314;11.562;2023-05-16T10:50:37;21.30;75.60
1956;DHT22;978;48.314;11.562;2023-05-16T10:53:19;21.30;75.60
1956;DHT22;978;48.314;11.562;2023-05-16T10:56:06;21.30;75.60
1956;DHT22;978;48.314;11.562;2023-05-16T10:58:46;21.30;75.60
1956;DHT22;978;48.314;11.562;2023-05-16T11:01:28;21.30;75.60
1956;DHT22;978;48.314;11.562;2023-05-16T11:04:06;21.30;75.60
1956;DHT22;978;48.314;11.562;2023-05-16T11:06:42;21.30;75.60
1956;DHT22;978;48.314;11.562;2023-05-16T11:09:22;21.30;75.60
1956;DHT22;978;48.314;11.562;2023-05-16T11:11:59;21.30;75.60
1956;DHT22;978;48.314;11.562;2023-05-16T11:14:28;21.30;75.60
1956;DHT22;978;48.314;11.562;2023-05-16T11:17:05;21.30;75.70
1956;DHT22;978;48.314;11.562;2023-05-16T11:19:34;21.30;75.70
1956;DHT22;978;48.314;11.562;2023-05-16T11:22:25;21.30;75.70
1956;DHT22;978;48.314;11.562;2023-05-16T11:24:56;21.30;75.70
1956;DHT22;978;48.314;11.562;2023-05-16T11:27:26;21.30;76.10
1956;DHT22;978;48.314;11.562;2023-05-16T11:29:56;21.40;76.10
1956;DHT22;978;48.314;11.562;2023-05-16T11:32:23;21.30;75.90
1956;DHT22;978;48.314;11.562;2023-05-16T11:34:51;21.30;75.90
1956;DHT22;978;48.314;11.562;2023-05-16T11:37:19;21.30;75.90
1956;DHT22;978;48.314;11.562;2023-05-16T11:39:47;21.30;76.00
1956;DHT22;978;48.314;11.562;2023-05-16T11:42:15;21.30;76.00
1956;DHT22;978;48.314;11.562;2023-05-16T11:44:45;21.30;76.00
1956;DHT22;978;48.314;11.562;2023-05-16T11:47:12;21.30;75.90
1956;DHT22;978;48.314;11.562;2023-05-16T11:49:41;21.30;75.90
1956;DHT22;978;48.314;11.562;2023-05-16T11:52:09;21.30;75.90
1956;DHT22;978;48.314;11.562;2023-05-16T11:54:36;21.30;75.90
1956;DHT22;978;48.314;11.562;2023-05-16T11:57:08;21.30;75.90
1956;DHT22;978;48.314;11.562;2023-05-16T11:59:36;21.30;75.90
1956;DHT22;978;48.314;11.562;2023-05-16T12:02:05;21.30;75.90
1956;DHT22;978;48.314;11.562;2023-05-16T12:04:35;21.30;76.00
1956;DHT22;978;48.314;11.562;2023-05-16T12:07:02;21.30;76.10
1956;DHT22;978;48.314;11.562;2023-05-16T12:09:30;21.30;75.90
1956;DHT22;978;48.314;11.562;2023-05-16T12:11:56;21.30;75.80
1956;DHT22;978;48.314;11.562;2023-05-16T12:14:23;21.30;75.70
1956;DHT22;978;48.314;11.562;2023-05-16T12:16:51;21.30;75.50
1956;DHT22;978;48.314;11.562;2023-05-16T12:19:20;21.30;75.40
1956;DHT22;978;48.314;11.562;2023-05-16T12:21:52;21.30;75.40
1956;DHT22;978;48.314;11.562;2023-05-16T12:24:19;21.30;75.40
1956;DHT22;978;48.314;11.562;2023-05-16T12:26:48;21.30;75.40
1956;DHT22;978;48.314;11.562;2023-05-16T12:29:16;21.30;75.50
1956;DHT22;978;48.314;11.562;2023-05-16T12:31:43;21.30;75.50
1956;DHT22;978;48.314;11.562;2023-05-16T12:34:19;21.30;75.60
1956;DHT22;978;48.314;11.562;2023-05-16T12:36:51;21.30;75.60
1956;DHT22;978;48.314;11.562;2023-05-16T12:39:19;21.30;75.60
1956;DHT22;978;48.314;11.562;2023-05-16T12:41:48;21.30;75.70
1956;DHT22;978;48.314;11.562;2023-05-16T12:44:17;21.30;75.70
1956;DHT22;978;48.314;11.562;2023-05-16T12:46:48;21.30;75.70
1956;DHT22;978;48.314;11.562;2023-05-16T12:49:23;21.30;75.80
1956;DHT22;978;48.314;11.562;2023-05-16T12:51:51;21.30;75.90
1956;DHT22;978;48.314;11.562;2023-05-16T12:54:19;21.30;75.80
1956;DHT22;978;48.314;11.562;2023-05-16T12:56:48;21.30;75.90
1956;DHT22;978;48.314;11.562;2023-05-16T12:59:16;21.30;76.00
1956;DHT22;978;48.314;11.562;2023-05-16T13:01:45;21.30;75.70
1956;DHT22;978;48.314;11.562;2023-05-16T13:04:13;21.30;75.30
1956;DHT22;978;48.314;11.562;2023-05-16T13:06:47;21.30;74.80
1956;DHT22;978;48.314;11.562;2023-05-16T13:09:14;21.30;74.60
1956;DHT22;978;48.314;11.562;2023-05-16T13:11:40;21.30;74.40
1956;DHT22;978;48.314;11.562;2023-05-16T13:14:09;21.30;74.20
1956;DHT22;978;48.314;11.562;2023-05-16T13:16:36;21.30;74.00
1956;DHT22;978;48.314;11.562;2023-05-16T13:19:03;21.30;74.00
1956;DHT22;978;48.314;11.562;2023-05-16T13:21:30;21.30;74.00
1956;DHT22;978;48.314;11.562;2023-05-16T13:23:58;21.30;73.90
1956;DHT22;978;48.314;11.562;2023-05-16T13:26:25;21.30;73.70
1956;DHT22;978;48.314;11.562;2023-05-16T13:28:52;21.30;73.50
1956;DHT22;978;48.314;11.562;2023-05-16T13:31:21;21.30;73.30
1956;DHT22;978;48.314;11.562;2023-05-16T13:33:47;21.20;73.10
1956;DHT22;978;48.314;11.562;2023-05-16T13:36:15;21.20;73.00
1956;DHT22;978;48.314;11.562;2023-05-16T13:38:44;21.30;73.00
1956;DHT22;978;48.314;11.562;2023-05-16T13:41:27;21.30;73.30
1956;DHT22;978;48.314;11.562;2023-05-16T13:43:54;21.30;73.50
1956;DHT22;978;48.314;11.562;2023-05-16T13:46:22;21.30;73.80
1956;DHT22;978;48.314;11.562;2023-05-16T13:48:52;21.20;74.20
1956;DHT22;978;48.314;11.562;2023-05-16T13:51:20;21.30;74.60
1956;DHT22;978;48.314;11.562;2023-05-16T13:53:48;21.30;74.80
1956;DHT22;978;48.314;11.562;2023-05-16T13:56:18;21.30;74.90
1956;DHT22;978;48.314;11.562;2023-05-16T13:58:47;21.30;74.90
1956;DHT22;978;48.314;11.562;2023-05-16T14:01:14;21.30;75.50
1956;DHT22;978;48.314;11.562;2023-05-16T14:03:41;21.30;75.00
1956;DHT22;978;48.314;11.562;2023-05-16T14:06:09;21.30;75.00
1956;DHT22;978;48.314;11.562;2023-05-16T14:08:37;21.30;75.00
1956;DHT22;978;48.314;11.562;2023-05-16T14:11:04;21.30;75.00
1956;DHT22;978;48.314;11.562;2023-05-16T14:13:32;21.30;75.10
1956;DHT22;978;48.314;11.562;2023-05-16T14:15:59;21.30;75.10
1956;DHT22;978;48.314;11.562;2023-05-16T14:18:26;21.30;75.10
1956;DHT22;978;48.314;11.562;2023-05-16T14:20:55;21.30;75.10
1956;DHT22;978;48.314;11.562;2023-05-16T14:23:24;21.30;75.10
1956;DHT22;978;48.314;11.562;2023-05-16T14:25:52;21.30;75.10
1956;DHT22;978;48.314;11.562;2023-05-16T14:28:22;21.30;75.10
1956;DHT22;978;48.314;11.562;2023-05-16T14:30:51;21.30;75.80
1956;DHT22;978;48.314;11.562;2023-05-16T14:33:19;21.50;75.30
1956;DHT22;978;48.314;11.562;2023-05-16T14:35:46;21.30;75.20
1956;DHT22;978;48.314;11.562;2023-05-16T14:38:15;21.30;75.20
1956;DHT22;978;48.314;11.562;2023-05-16T14:40:42;21.30;75.30
1956;DHT22;978;48.314;11.562;2023-05-16T14:43:09;21.30;75.30
1956;DHT22;978;48.314;11.562;2023-05-16T14:45:36;21.30;75.30
1956;DHT22;978;48.314;11.562;2023-05-16T14:48:06;21.30;75.30
1956;DHT22;978;48.314;11.562;2023-05-16T14:50:35;21.30;75.40
1956;DHT22;978;48.314;11.562;2023-05-16T14:53:01;21.30;75.40
1956;DHT22;978;48.314;11.562;2023-05-16T14:55:28;21.30;75.40
1956;DHT22;978;48.314;11.562;2023-05-16T14:57:56;21.30;75.40
1956;DHT22;978;48.314;11.562;2023-05-16T15:00:25;21.30;75.40
1956;DHT22;978;48.314;11.562;2023-05-16T15:02:53;21.30;75.40
1956;DHT22;978;48.314;11.562;2023-05-16T15:05:23;21.30;75.40
1956;DHT22;978;48.314;11.562;2023-05-16T15:07:50;21.30;75.40
1956;DHT22;978;48.314;11.562;2023-05-16T15:10:18;21.30;75.40
1956;DHT22;978;48.314;11.562;2023-05-16T15:12:45;21.30;75.50
1956;DHT22;978;48.314;11.562;2023-05-16T15:15:13;21.60;75.60
1956;DHT22;978;48.314;11.562;2023-05-16T15:17:40;21.30;75.50
1956;DHT22;978;48.314;11.562;2023-05-16T15:20:09;21.30;75.50
1956;DHT22;978;48.314;11.562;2023-05-16T15:22:39;21.30;75.50
1956;DHT22;978;48.314;11.562;2023-05-16T15:25:08;21.30;75.60
1956;DHT22;978;48.314;11.562;2023-05-16T15:27:43;21.30;75.60
1956;DHT22;978;48.314;11.562;2023-05-16T15:30:10;21.30;75.60
1956;DHT22;978;48.314;11.562;2023-05-16T15:32:39;21.30;75.70
1956;DHT22;978;48.314;11.562;2023-05-16T15:35:08;21.30;75.60
1956;DHT22;978;48.314;11.562;2023-05-16T15:37:38;21.30;75.70
1956;DHT22;978;48.314;11.562;2023-05-16T15:40:07;21.30;75.70
1956;DHT22;978;48.314;11.562;2023-05-16T15:42:37;21.30;75.70
1956;DHT22;978;48.314;11.562;2023-05-16T15:45:04;21.30;75.80
1956;DHT22;978;48.314;11.562;2023-05-16T15:47:31;21.30;75.80
1956;DHT22;978;48.314;11.562;2023-05-16T15:49:58;21.30;75.90
1956;DHT22;978;48.314;11.562;2023-05-16T15:52:25;21.30;76.00
1956;DHT22;978;48.314;11.562;2023-05-16T15:54:55;21.30;76.20
1956;DHT22;978;48.314;11.562;2023-05-16T15:57:23;21.30;76.40
1956;DHT22;978;48.314;11.562;2023-05-16T15:59:51;21.30;76.70
1956;DHT22;978;48.314;11.562;2023-05-16T16:02:18;21.30;77.00
1956;DHT22;978;48.314;11.562;2023-05-16T16:04:47;21.30;77.20
1956;DHT22;978;48.314;11.562;2023-05-16T16:07:16;21.30;77.50
1956;DHT22;978;48.314;11.562;2023-05-16T16:09:43;21.30;77.90
1956;DHT22;978;48.314;11.562;2023-05-16T16:12:12;21.30;77.90
1956;DHT22;978;48.314;11.562;2023-05-16T16:14:39;21.30;78.20